Tripoli, Iowa
Current Conditions -  °F | °C
As of 10:15 AM on Wednesday 22 Oct 2014 (Local Time) from KOLZ Reporting Station
Clear Clear  
Wind Chill: 40°   Ceiling: Unl
Heat Index: 46°   Visibility: 10mi
Dew Point: 39°   Wind: 15mph
Humidity: 76%   Direction: 150°SSE
Pressure: 30.3"   Gusts: NA
Location:  42.81°N, 92.26°W
Report Text: KOLZ 221515Z AUTO 15013KT 10SM CLR 08/04 A3030 RMK AO2
Loading
Personal Weather Stations






























Interactive Weather Map
Tropical Storm Tracking
New forecast layout! Learn more

10-Day Weather Forecast

Advertisements
Track Severe Weather on mobile